sensor_id;sensor_type;location;lat;lon;timestamp;temperature;humidity
20233;DHT22;37438;55.674;13.074;2023-09-12T00:01:37;19.80;99.90
20233;DHT22;37438;55.674;13.074;2023-09-12T00:04:42;19.90;99.90
20233;DHT22;37438;55.674;13.074;2023-09-12T00:07:46;19.80;99.90
20233;DHT22;37438;55.674;13.074;2023-09-12T00:10:58;19.90;99.90
20233;DHT22;37438;55.674;13.074;2023-09-12T00:14:02;20.00;99.90
20233;DHT22;37438;55.674;13.074;2023-09-12T00:17:06;19.90;99.90
20233;DHT22;37438;55.674;13.074;2023-09-12T00:20:11;20.00;99.90
20233;DHT22;37438;55.674;13.074;2023-09-12T00:23:16;20.00;99.90
20233;DHT22;37438;55.674;13.074;2023-09-12T00:26:21;19.90;99.90
20233;DHT22;37438;55.674;13.074;2023-09-12T00:29:26;20.00;99.90
20233;DHT22;37438;55.674;13.074;2023-09-12T00:32:31;20.00;99.90
20233;DHT22;37438;55.674;13.074;2023-09-12T00:35:36;20.00;99.90
20233;DHT22;37438;55.674;13.074;2023-09-12T00:38:40;20.10;99.90
20233;DHT22;37438;55.674;13.074;2023-09-12T00:41:46;20.00;99.90
20233;DHT22;37438;55.674;13.074;2023-09-12T00:44:51;20.00;99.90
20233;DHT22;37438;55.674;13.074;2023-09-12T00:47:55;20.10;99.90
20233;DHT22;37438;55.674;13.074;2023-09-12T00:51:01;20.10;99.90
20233;DHT22;37438;55.674;13.074;2023-09-12T00:54:06;20.10;99.90
20233;DHT22;37438;55.674;13.074;2023-09-12T00:57:12;20.10;99.90
20233;DHT22;37438;55.674;13.074;2023-09-12T01:00:17;20.00;99.90
20233;DHT22;37438;55.674;13.074;2023-09-12T01:03:22;20.10;99.90
20233;DHT22;37438;55.674;13.074;2023-09-12T01:06:26;20.10;99.90
20233;DHT22;37438;55.674;13.074;2023-09-12T01:09:32;20.00;99.90
20233;DHT22;37438;55.674;13.074;2023-09-12T01:12:36;20.10;99.90
20233;DHT22;37438;55.674;13.074;2023-09-12T01:15:41;20.10;99.90
20233;DHT22;37438;55.674;13.074;2023-09-12T01:18:46;20.10;99.90
20233;DHT22;37438;55.674;13.074;2023-09-12T01:28:34;20.10;99.90
20233;DHT22;37438;55.674;13.074;2023-09-12T01:31:40;20.10;99.90
20233;DHT22;37438;55.674;13.074;2023-09-12T01:34:45;20.00;99.90
20233;DHT22;37438;55.674;13.074;2023-09-12T01:37:50;20.00;99.90
20233;DHT22;37438;55.674;13.074;2023-09-12T01:40:55;20.00;99.90
20233;DHT22;37438;55.674;13.074;2023-09-12T01:44:02;20.00;99.90
20233;DHT22;37438;55.674;13.074;2023-09-12T01:47:08;20.00;99.90
20233;DHT22;37438;55.674;13.074;2023-09-12T01:50:12;20.00;99.90
20233;DHT22;37438;55.674;13.074;2023-09-12T01:53:18;20.10;99.90
20233;DHT22;37438;55.674;13.074;2023-09-12T01:56:23;20.00;99.90
20233;DHT22;37438;55.674;13.074;2023-09-12T01:59:28;20.00;99.90
20233;DHT22;37438;55.674;13.074;2023-09-12T02:02:33;20.10;99.90
20233;DHT22;37438;55.674;13.074;2023-09-12T02:05:38;20.00;99.90
20233;DHT22;37438;55.674;13.074;2023-09-12T02:08:43;20.00;99.90
20233;DHT22;37438;55.674;13.074;2023-09-12T02:11:48;20.10;99.90
20233;DHT22;37438;55.674;13.074;2023-09-12T02:14:53;20.00;99.90
20233;DHT22;37438;55.674;13.074;2023-09-12T02:17:58;20.10;99.90
20233;DHT22;37438;55.674;13.074;2023-09-12T02:21:02;20.00;99.90
20233;DHT22;37438;55.674;13.074;2023-09-12T02:24:07;20.00;99.90
20233;DHT22;37438;55.674;13.074;2023-09-12T02:27:12;20.00;99.90
20233;DHT22;37438;55.674;13.074;2023-09-12T02:30:16;20.00;99.90
20233;DHT22;37438;55.674;13.074;2023-09-12T02:33:21;20.00;99.90
20233;DHT22;37438;55.674;13.074;2023-09-12T02:36:26;20.00;99.90
20233;DHT22;37438;55.674;13.074;2023-09-12T02:39:30;19.90;99.90
20233;DHT22;37438;55.674;13.074;2023-09-12T02:42:35;20.00;99.90
20233;DHT22;37438;55.674;13.074;2023-09-12T02:45:39;20.10;99.90
20233;DHT22;37438;55.674;13.074;2023-09-12T02:48:44;20.10;99.90
20233;DHT22;37438;55.674;13.074;2023-09-12T02:51:49;20.00;99.90
20233;DHT22;37438;55.674;13.074;2023-09-12T02:54:53;20.10;99.90
20233;DHT22;37438;55.674;13.074;2023-09-12T02:57:58;20.00;99.90
20233;DHT22;37438;55.674;13.074;2023-09-12T03:01:02;19.90;99.90
20233;DHT22;37438;55.674;13.074;2023-09-12T03:04:07;20.00;99.90
20233;DHT22;37438;55.674;13.074;2023-09-12T03:07:12;20.00;99.90
20233;DHT22;37438;55.674;13.074;2023-09-12T03:10:16;20.10;99.90
20233;DHT22;37438;55.674;13.074;2023-09-12T03:13:20;20.00;99.90
20233;DHT22;37438;55.674;13.074;2023-09-12T03:16:24;20.00;99.90
20233;DHT22;37438;55.674;13.074;2023-09-12T03:19:30;20.10;99.90
20233;DHT22;37438;55.674;13.074;2023-09-12T03:22:34;19.90;99.90
20233;DHT22;37438;55.674;13.074;2023-09-12T03:25:44;20.00;99.90
20233;DHT22;37438;55.674;13.074;2023-09-12T03:28:49;20.10;99.90
20233;DHT22;37438;55.674;13.074;2023-09-12T03:31:55;20.10;99.90
20233;DHT22;37438;55.674;13.074;2023-09-12T03:34:59;20.20;99.90
20233;DHT22;37438;55.674;13.074;2023-09-12T03:38:04;20.10;99.90
20233;DHT22;37438;55.674;13.074;2023-09-12T03:41:09;20.00;99.90
20233;DHT22;37438;55.674;13.074;2023-09-12T03:44:14;20.00;99.90
20233;DHT22;37438;55.674;13.074;2023-09-12T03:47:19;20.10;99.90
20233;DHT22;37438;55.674;13.074;2023-09-12T03:50:23;20.10;99.90
20233;DHT22;37438;55.674;13.074;2023-09-12T03:53:28;20.10;99.90
20233;DHT22;37438;55.674;13.074;2023-09-12T03:56:32;20.10;99.90
20233;DHT22;37438;55.674;13.074;2023-09-12T03:59:36;20.10;99.90
20233;DHT22;37438;55.674;13.074;2023-09-12T04:02:42;20.30;99.90
20233;DHT22;37438;55.674;13.074;2023-09-12T04:05:47;20.30;99.90
20233;DHT22;37438;55.674;13.074;2023-09-12T04:08:51;20.20;99.90
20233;DHT22;37438;55.674;13.074;2023-09-12T04:11:56;20.20;99.90
20233;DHT22;37438;55.674;13.074;2023-09-12T04:15:00;20.30;99.90
20233;DHT22;37438;55.674;13.074;2023-09-12T04:18:05;20.20;99.90
20233;DHT22;37438;55.674;13.074;2023-09-12T04:21:10;20.20;99.90
20233;DHT22;37438;55.674;13.074;2023-09-12T04:24:15;20.30;99.90
20233;DHT22;37438;55.674;13.074;2023-09-12T04:27:22;20.40;99.90
20233;DHT22;37438;55.674;13.074;2023-09-12T04:30:27;20.30;99.90
20233;DHT22;37438;55.674;13.074;2023-09-12T04:33:32;20.40;99.90
20233;DHT22;37438;55.674;13.074;2023-09-12T04:36:37;20.40;99.90
20233;DHT22;37438;55.674;13.074;2023-09-12T04:39:41;20.40;99.90
20233;DHT22;37438;55.674;13.074;2023-09-12T04:42:45;20.40;99.90
20233;DHT22;37438;55.674;13.074;2023-09-12T04:45:50;20.40;99.90
20233;DHT22;37438;55.674;13.074;2023-09-12T04:48:55;20.50;99.90
20233;DHT22;37438;55.674;13.074;2023-09-12T04:51:59;20.40;99.90
20233;DHT22;37438;55.674;13.074;2023-09-12T04:55:04;20.50;99.90
20233;DHT22;37438;55.674;13.074;2023-09-12T04:58:09;20.40;99.90
20233;DHT22;37438;55.674;13.074;2023-09-12T05:01:13;20.50;99.90
20233;DHT22;37438;55.674;13.074;2023-09-12T05:04:18;20.60;99.90
20233;DHT22;37438;55.674;13.074;2023-09-12T05:07:24;20.50;99.90
20233;DHT22;37438;55.674;13.074;2023-09-12T05:10:29;20.40;99.90
20233;DHT22;37438;55.674;13.074;2023-09-12T05:13:33;20.50;99.90
20233;DHT22;37438;55.674;13.074;2023-09-12T05:16:38;20.40;99.90
20233;DHT22;37438;55.674;13.074;2023-09-12T05:19:43;20.40;99.90
20233;DHT22;37438;55.674;13.074;2023-09-12T05:22:48;20.60;99.90
20233;DHT22;37438;55.674;13.074;2023-09-12T05:25:52;20.60;99.90
20233;DHT22;37438;55.674;13.074;2023-09-12T05:28:57;20.70;99.90
20233;DHT22;37438;55.674;13.074;2023-09-12T05:32:02;20.90;99.90
20233;DHT22;37438;55.674;13.074;2023-09-12T05:35:07;20.90;99.90
20233;DHT22;37438;55.674;13.074;2023-09-12T05:38:26;21.00;99.90
20233;DHT22;37438;55.674;13.074;2023-09-12T05:41:30;21.30;99.90
20233;DHT22;37438;55.674;13.074;2023-09-12T05:44:35;21.30;99.90
20233;DHT22;37438;55.674;13.074;2023-09-12T05:47:40;21.30;99.90
20233;DHT22;37438;55.674;13.074;2023-09-12T05:50:44;21.20;99.90
20233;DHT22;37438;55.674;13.074;2023-09-12T05:53:49;21.60;99.90
20233;DHT22;37438;55.674;13.074;2023-09-12T05:56:54;21.60;99.90
20233;DHT22;37438;55.674;13.074;2023-09-12T05:59:59;21.70;99.90
20233;DHT22;37438;55.674;13.074;2023-09-12T06:03:15;21.80;99.90
20233;DHT22;37438;55.674;13.074;2023-09-12T06:06:21;21.70;99.90
20233;DHT22;37438;55.674;13.074;2023-09-12T06:09:25;21.70;99.90
20233;DHT22;37438;55.674;13.074;2023-09-12T06:12:30;21.90;99.90
20233;DHT22;37438;55.674;13.074;2023-09-12T06:15:37;21.80;99.90
20233;DHT22;37438;55.674;13.074;2023-09-12T06:18:41;21.80;99.90
20233;DHT22;37438;55.674;13.074;2023-09-12T06:21:46;21.80;99.90
20233;DHT22;37438;55.674;13.074;2023-09-12T06:24:51;21.80;99.90
20233;DHT22;37438;55.674;13.074;2023-09-12T06:27:55;21.70;99.90
20233;DHT22;37438;55.674;13.074;2023-09-12T06:31:00;21.50;99.90
20233;DHT22;37438;55.674;13.074;2023-09-12T06:34:05;21.50;99.90
20233;DHT22;37438;55.674;13.074;2023-09-12T06:37:13;21.70;99.90
20233;DHT22;37438;55.674;13.074;2023-09-12T06:40:17;21.70;99.90
20233;DHT22;37438;55.674;13.074;2023-09-12T06:43:21;21.90;99.90
20233;DHT22;37438;55.674;13.074;2023-09-12T06:46:26;21.80;99.90
20233;DHT22;37438;55.674;13.074;2023-09-12T06:49:31;21.80;99.90
20233;DHT22;37438;55.674;13.074;2023-09-12T06:52:40;21.80;99.90
20233;DHT22;37438;55.674;13.074;2023-09-12T06:55:44;21.70;99.90
20233;DHT22;37438;55.674;13.074;2023-09-12T06:58:49;21.70;99.90
20233;DHT22;37438;55.674;13.074;2023-09-12T07:01:53;21.80;99.90
20233;DHT22;37438;55.674;13.074;2023-09-12T07:04:58;21.70;99.90
20233;DHT22;37438;55.674;13.074;2023-09-12T07:08:03;21.60;99.90
20233;DHT22;37438;55.674;13.074;2023-09-12T07:11:07;21.70;99.90
20233;DHT22;37438;55.674;13.074;2023-09-12T07:14:12;21.80;99.90
20233;DHT22;37438;55.674;13.074;2023-09-12T07:17:16;21.80;99.90
20233;DHT22;37438;55.674;13.074;2023-09-12T07:20:21;21.70;99.90
20233;DHT22;37438;55.674;13.074;2023-09-12T07:23:26;21.80;99.90
20233;DHT22;37438;55.674;13.074;2023-09-12T07:26:30;21.90;99.90
20233;DHT22;37438;55.674;13.074;2023-09-12T07:29:35;21.90;99.90
20233;DHT22;37438;55.674;13.074;2023-09-12T07:32:40;22.10;99.90
20233;DHT22;37438;55.674;13.074;2023-09-12T07:35:44;22.30;99.90
20233;DHT22;37438;55.674;13.074;2023-09-12T07:38:49;22.30;99.90
20233;DHT22;37438;55.674;13.074;2023-09-12T07:41:54;22.10;99.90
20233;DHT22;37438;55.674;13.074;2023-09-12T07:44:58;21.90;99.90
20233;DHT22;37438;55.674;13.074;2023-09-12T07:48:09;21.80;99.90
20233;DHT22;37438;55.674;13.074;2023-09-12T07:51:17;21.50;99.90
20233;DHT22;37438;55.674;13.074;2023-09-12T07:54:22;21.60;99.90
20233;DHT22;37438;55.674;13.074;2023-09-12T07:57:28;21.90;99.90
20233;DHT22;37438;55.674;13.074;2023-09-12T08:00:36;21.60;99.90
20233;DHT22;37438;55.674;13.074;2023-09-12T08:03:42;21.50;99.90
20233;DHT22;37438;55.674;13.074;2023-09-12T08:06:47;21.70;99.90
20233;DHT22;37438;55.674;13.074;2023-09-12T08:10:02;21.70;99.90
20233;DHT22;37438;55.674;13.074;2023-09-12T08:13:07;21.70;99.90
20233;DHT22;37438;55.674;13.074;2023-09-12T08:16:11;21.80;99.90
20233;DHT22;37438;55.674;13.074;2023-09-12T08:19:16;21.70;99.90
20233;DHT22;37438;55.674;13.074;2023-09-12T08:22:23;21.90;99.90
20233;DHT22;37438;55.674;13.074;2023-09-12T08:25:27;21.90;99.90
20233;DHT22;37438;55.674;13.074;2023-09-12T08:28:31;21.90;99.90
20233;DHT22;37438;55.674;13.074;2023-09-12T08:31:36;21.80;99.90
20233;DHT22;37438;55.674;13.074;2023-09-12T08:34:41;21.90;99.90
20233;DHT22;37438;55.674;13.074;2023-09-12T08:37:45;21.80;99.90
20233;DHT22;37438;55.674;13.074;2023-09-12T08:40:50;22.10;99.90
20233;DHT22;37438;55.674;13.074;2023-09-12T08:43:56;22.40;99.90
20233;DHT22;37438;55.674;13.074;2023-09-12T08:47:01;22.50;99.90
20233;DHT22;37438;55.674;13.074;2023-09-12T08:50:09;22.80;99.90
20233;DHT22;37438;55.674;13.074;2023-09-12T08:53:14;22.70;99.90
20233;DHT22;37438;55.674;13.074;2023-09-12T08:56:19;22.40;99.90
20233;DHT22;37438;55.674;13.074;2023-09-12T08:59:24;22.40;99.90
20233;DHT22;37438;55.674;13.074;2023-09-12T09:02:33;22.20;99.90
20233;DHT22;37438;55.674;13.074;2023-09-12T09:05:40;22.20;99.90
20233;DHT22;37438;55.674;13.074;2023-09-12T09:08:46;22.20;99.90
20233;DHT22;37438;55.674;13.074;2023-09-12T09:11:51;22.10;99.90
20233;DHT22;37438;55.674;13.074;2023-09-12T09:14:56;22.20;99.90
20233;DHT22;37438;55.674;13.074;2023-09-12T09:18:01;22.00;99.90
20233;DHT22;37438;55.674;13.074;2023-09-12T09:21:18;22.30;99.90
20233;DHT22;37438;55.674;13.074;2023-09-12T09:24:28;22.60;99.90
20233;DHT22;37438;55.674;13.074;2023-09-12T09:27:33;22.40;99.90
20233;DHT22;37438;55.674;13.074;2023-09-12T09:30:46;22.90;99.90
20233;DHT22;37438;55.674;13.074;2023-09-12T09:33:51;23.20;99.90
20233;DHT22;37438;55.674;13.074;2023-09-12T09:36:57;23.50;99.90
20233;DHT22;37438;55.674;13.074;2023-09-12T09:40:05;23.20;99.90
20233;DHT22;37438;55.674;13.074;2023-09-12T09:43:10;23.00;99.90
20233;DHT22;37438;55.674;13.074;2023-09-12T09:46:16;23.00;99.90
20233;DHT22;37438;55.674;13.074;2023-09-12T09:49:21;22.60;99.90
20233;DHT22;37438;55.674;13.074;2023-09-12T09:52:26;22.60;99.90
20233;DHT22;37438;55.674;13.074;2023-09-12T09:55:33;22.50;99.90
20233;DHT22;37438;55.674;13.074;2023-09-12T09:58:48;22.50;99.90
20233;DHT22;37438;55.674;13.074;2023-09-12T10:01:57;22.40;99.90
20233;DHT22;37438;55.674;13.074;2023-09-12T10:05:05;22.30;99.90
20233;DHT22;37438;55.674;13.074;2023-09-12T10:08:11;22.10;99.90
20233;DHT22;37438;55.674;13.074;2023-09-12T10:11:23;22.30;99.90
20233;DHT22;37438;55.674;13.074;2023-09-12T10:14:28;22.10;99.90
20233;DHT22;37438;55.674;13.074;2023-09-12T10:17:36;22.30;99.90
20233;DHT22;37438;55.674;13.074;2023-09-12T10:21:05;22.00;99.90
20233;DHT22;37438;55.674;13.074;2023-09-12T10:24:14;22.00;99.90
20233;DHT22;37438;55.674;13.074;2023-09-12T10:27:19;22.10;99.90
20233;DHT22;37438;55.674;13.074;2023-09-12T10:30:24;22.00;99.90
20233;DHT22;37438;55.674;13.074;2023-09-12T10:33:29;22.00;99.90
20233;DHT22;37438;55.674;13.074;2023-09-12T10:36:40;21.90;99.90
20233;DHT22;37438;55.674;13.074;2023-09-12T10:39:45;22.10;99.90
20233;DHT22;37438;55.674;13.074;2023-09-12T10:42:51;22.00;99.90
20233;DHT22;37438;55.674;13.074;2023-09-12T10:45:57;21.90;99.90
20233;DHT22;37438;55.674;13.074;2023-09-12T10:49:07;21.80;99.90
20233;DHT22;37438;55.674;13.074;2023-09-12T10:52:27;22.10;99.90
20233;DHT22;37438;55.674;13.074;2023-09-12T10:55:32;21.90;99.90
20233;DHT22;37438;55.674;13.074;2023-09-12T11:08:41;22.20;99.90
20233;DHT22;37438;55.674;13.074;2023-09-12T11:11:46;22.40;99.90
20233;DHT22;37438;55.674;13.074;2023-09-12T11:15:04;22.30;99.90
20233;DHT22;37438;55.674;13.074;2023-09-12T11:18:13;22.30;99.90
20233;DHT22;37438;55.674;13.074;2023-09-12T11:21:31;22.30;99.90
20233;DHT22;37438;55.674;13.074;2023-09-12T11:24:43;22.50;99.90
20233;DHT22;37438;55.674;13.074;2023-09-12T11:30:56;22.80;99.90
20233;DHT22;37438;55.674;13.074;2023-09-12T11:34:04;23.10;99.90
20233;DHT22;37438;55.674;13.074;2023-09-12T11:37:08;23.70;99.90
20233;DHT22;37438;55.674;13.074;2023-09-12T11:43:21;24.40;99.90
20233;DHT22;37438;55.674;13.074;2023-09-12T11:46:27;24.90;99.90
20233;DHT22;37438;55.674;13.074;2023-09-12T11:49:37;25.30;99.90
20233;DHT22;37438;55.674;13.074;2023-09-12T11:52:41;25.50;99.90
20233;DHT22;37438;55.674;13.074;2023-09-12T11:55:50;25.30;99.90
20233;DHT22;37438;55.674;13.074;2023-09-12T11:58:55;26.00;99.90
20233;DHT22;37438;55.674;13.074;2023-09-12T12:02:00;25.50;99.90
20233;DHT22;37438;55.674;13.074;2023-09-12T12:05:05;24.80;99.90
20233;DHT22;37438;55.674;13.074;2023-09-12T12:08:11;25.30;99.90
20233;DHT22;37438;55.674;13.074;2023-09-12T12:11:35;25.60;99.90
20233;DHT22;37438;55.674;13.074;2023-09-12T12:14:40;25.40;99.90
20233;DHT22;37438;55.674;13.074;2023-09-12T12:17:45;25.40;99.90
20233;DHT22;37438;55.674;13.074;2023-09-12T12:20:49;25.70;99.90
20233;DHT22;37438;55.674;13.074;2023-09-12T12:23:58;25.30;99.90
20233;DHT22;37438;55.674;13.074;2023-09-12T12:27:03;25.00;99.90
20233;DHT22;37438;55.674;13.074;2023-09-12T12:30:11;24.80;99.90
20233;DHT22;37438;55.674;13.074;2023-09-12T12:33:15;25.10;99.90
20233;DHT22;37438;55.674;13.074;2023-09-12T12:36:41;25.40;99.90
20233;DHT22;37438;55.674;13.074;2023-09-12T12:40:00;25.40;99.90
20233;DHT22;37438;55.674;13.074;2023-09-12T12:43:16;25.50;99.90
20233;DHT22;37438;55.674;13.074;2023-09-12T12:46:21;24.80;99.90
20233;DHT22;37438;55.674;13.074;2023-09-12T12:49:26;24.50;99.90
20233;DHT22;37438;55.674;13.074;2023-09-12T12:52:34;23.90;99.90
20233;DHT22;37438;55.674;13.074;2023-09-12T12:55:38;23.90;99.90
20233;DHT22;37438;55.674;13.074;2023-09-12T12:58:48;23.70;99.90
20233;DHT22;37438;55.674;13.074;2023-09-12T13:01:52;24.00;99.90
20233;DHT22;37438;55.674;13.074;2023-09-12T13:04:57;24.10;99.90
20233;DHT22;37438;55.674;13.074;2023-09-12T13:08:01;23.90;99.90
20233;DHT22;37438;55.674;13.074;2023-09-12T13:11:07;24.10;99.90
20233;DHT22;37438;55.674;13.074;2023-09-12T13:14:12;23.80;99.90
20233;DHT22;37438;55.674;13.074;2023-09-12T13:17:17;24.50;99.90
20233;DHT22;37438;55.674;13.074;2023-09-12T13:20:21;25.30;99.90
20233;DHT22;37438;55.674;13.074;2023-09-12T13:23:27;25.40;99.90
20233;DHT22;37438;55.674;13.074;2023-09-12T13:26:32;24.70;99.90
20233;DHT22;37438;55.674;13.074;2023-09-12T13:29:37;24.60;99.90
20233;DHT22;37438;55.674;13.074;2023-09-12T13:32:41;24.40;99.90
20233;DHT22;37438;55.674;13.074;2023-09-12T13:35:49;26.00;99.90
20233;DHT22;37438;55.674;13.074;2023-09-12T13:38:54;25.80;99.90
20233;DHT22;37438;55.674;13.074;2023-09-12T13:42:00;26.30;99.90
20233;DHT22;37438;55.674;13.074;2023-09-12T13:45:07;26.50;99.90
20233;DHT22;37438;55.674;13.074;2023-09-12T13:48:12;27.10;99.90
20233;DHT22;37438;55.674;13.074;2023-09-12T13:51:18;26.40;99.90
20233;DHT22;37438;55.674;13.074;2023-09-12T13:54:22;26.40;99.90
20233;DHT22;37438;55.674;13.074;2023-09-12T13:57:27;25.50;99.90
20233;DHT22;37438;55.674;13.074;2023-09-12T14:00:33;26.00;99.90
20233;DHT22;37438;55.674;13.074;2023-09-12T14:03:40;27.00;99.90
20233;DHT22;37438;55.674;13.074;2023-09-12T14:06:46;27.60;99.90
20233;DHT22;37438;55.674;13.074;2023-09-12T14:09:51;27.60;99.90
20233;DHT22;37438;55.674;13.074;2023-09-12T14:12:59;26.40;99.90
20233;DHT22;37438;55.674;13.074;2023-09-12T14:16:23;26.70;99.90
20233;DHT22;37438;55.674;13.074;2023-09-12T14:19:27;26.60;99.90
20233;DHT22;37438;55.674;13.074;2023-09-12T14:22:33;26.20;99.90
20233;DHT22;37438;55.674;13.074;2023-09-12T14:25:38;25.70;99.90
20233;DHT22;37438;55.674;13.074;2023-09-12T14:28:43;25.40;99.90
20233;DHT22;37438;55.674;13.074;2023-09-12T14:31:49;25.00;99.90
20233;DHT22;37438;55.674;13.074;2023-09-12T14:34:56;24.60;99.90
20233;DHT22;37438;55.674;13.074;2023-09-12T14:38:01;24.60;99.90
20233;DHT22;37438;55.674;13.074;2023-09-12T14:41:06;24.60;99.90
20233;DHT22;37438;55.674;13.074;2023-09-12T14:44:11;24.70;99.90
20233;DHT22;37438;55.674;13.074;2023-09-12T14:47:15;24.90;99.90
20233;DHT22;37438;55.674;13.074;2023-09-12T14:50:20;25.10;99.90
20233;DHT22;37438;55.674;13.074;2023-09-12T14:53:30;25.30;99.90
20233;DHT22;37438;55.674;13.074;2023-09-12T14:56:36;24.80;99.90
20233;DHT22;37438;55.674;13.074;2023-09-12T14:59:40;25.80;99.90
20233;DHT22;37438;55.674;13.074;2023-09-12T15:02:46;25.90;99.90
20233;DHT22;37438;55.674;13.074;2023-09-12T15:05:50;25.80;99.90
20233;DHT22;37438;55.674;13.074;2023-09-12T15:08:54;25.30;99.90
20233;DHT22;37438;55.674;13.074;2023-09-12T15:11:59;25.10;99.90
20233;DHT22;37438;55.674;13.074;2023-09-12T15:15:04;24.50;99.90
20233;DHT22;37438;55.674;13.074;2023-09-12T15:18:09;24.40;99.90
20233;DHT22;37438;55.674;13.074;2023-09-12T15:21:13;24.10;99.90
20233;DHT22;37438;55.674;13.074;2023-09-12T15:24:18;23.90;99.90
20233;DHT22;37438;55.674;13.074;2023-09-12T15:27:22;23.50;99.90
20233;DHT22;37438;55.674;13.074;2023-09-12T15:30:27;23.50;99.90
20233;DHT22;37438;55.674;13.074;2023-09-12T15:33:31;23.60;99.90
20233;DHT22;37438;55.674;13.074;2023-09-12T15:36:43;23.50;99.90
20233;DHT22;37438;55.674;13.074;2023-09-12T15:39:48;23.30;99.90
20233;DHT22;37438;55.674;13.074;2023-09-12T15:42:53;23.40;99.90
20233;DHT22;37438;55.674;13.074;2023-09-12T15:45:58;23.30;99.90
20233;DHT22;37438;55.674;13.074;2023-09-12T15:49:03;23.20;99.90
20233;DHT22;37438;55.674;13.074;2023-09-12T15:52:08;23.10;99.90
20233;DHT22;37438;55.674;13.074;2023-09-12T15:55:13;23.00;99.90
20233;DHT22;37438;55.674;13.074;2023-09-12T15:58:17;23.00;99.90
20233;DHT22;37438;55.674;13.074;2023-09-12T16:01:22;23.00;99.90
20233;DHT22;37438;55.674;13.074;2023-09-12T16:04:27;23.10;99.90
20233;DHT22;37438;55.674;13.074;2023-09-12T16:07:31;23.00;99.90
20233;DHT22;37438;55.674;13.074;2023-09-12T16:10:36;22.90;99.90
20233;DHT22;37438;55.674;13.074;2023-09-12T16:13:41;23.10;99.90
20233;DHT22;37438;55.674;13.074;2023-09-12T16:16:45;23.00;99.90
20233;DHT22;37438;55.674;13.074;2023-09-12T16:19:51;22.90;99.90
20233;DHT22;37438;55.674;13.074;2023-09-12T16:22:55;22.90;99.90
20233;DHT22;37438;55.674;13.074;2023-09-12T16:26:00;22.90;99.90
20233;DHT22;37438;55.674;13.074;2023-09-12T16:29:05;22.80;99.90
20233;DHT22;37438;55.674;13.074;2023-09-12T16:32:09;22.70;99.90
20233;DHT22;37438;55.674;13.074;2023-09-12T16:35:14;22.80;99.90
20233;DHT22;37438;55.674;13.074;2023-09-12T16:38:18;22.90;99.90
20233;DHT22;37438;55.674;13.074;2023-09-12T16:41:23;23.00;99.90
20233;DHT22;37438;55.674;13.074;2023-09-12T16:44:27;22.90;99.90
20233;DHT22;37438;55.674;13.074;2023-09-12T16:47:31;22.90;99.90
20233;DHT22;37438;55.674;13.074;2023-09-12T16:50:36;22.90;99.90
20233;DHT22;37438;55.674;13.074;2023-09-12T16:53:41;23.00;99.90
20233;DHT22;37438;55.674;13.074;2023-09-12T16:56:45;22.80;99.90
20233;DHT22;37438;55.674;13.074;2023-09-12T16:59:50;22.80;99.90
20233;DHT22;37438;55.674;13.074;2023-09-12T17:02:54;22.70;99.90
20233;DHT22;37438;55.674;13.074;2023-09-12T17:05:59;22.90;99.90
20233;DHT22;37438;55.674;13.074;2023-09-12T17:09:05;23.00;99.90
20233;DHT22;37438;55.674;13.074;2023-09-12T17:12:10;23.00;99.90
20233;DHT22;37438;55.674;13.074;2023-09-12T17:15:15;23.00;99.90
20233;DHT22;37438;55.674;13.074;2023-09-12T17:18:22;23.10;99.90
20233;DHT22;37438;55.674;13.074;2023-09-12T17:21:26;22.90;99.90
20233;DHT22;37438;55.674;13.074;2023-09-12T17:24:31;22.60;99.90
20233;DHT22;37438;55.674;13.074;2023-09-12T17:27:36;22.40;99.90
20233;DHT22;37438;55.674;13.074;2023-09-12T17:30:42;22.40;99.90
20233;DHT22;37438;55.674;13.074;2023-09-12T17:33:47;22.40;99.90
20233;DHT22;37438;55.674;13.074;2023-09-12T17:36:51;22.40;99.90
20233;DHT22;37438;55.674;13.074;2023-09-12T17:39:56;22.40;99.90
20233;DHT22;37438;55.674;13.074;2023-09-12T17:43:01;22.40;99.90
20233;DHT22;37438;55.674;13.074;2023-09-12T17:46:06;22.30;99.90
20233;DHT22;37438;55.674;13.074;2023-09-12T17:49:15;22.40;99.90
20233;DHT22;37438;55.674;13.074;2023-09-12T17:52:19;22.50;99.90
20233;DHT22;37438;55.674;13.074;2023-09-12T17:55:24;22.50;99.90
20233;DHT22;37438;55.674;13.074;2023-09-12T17:58:28;22.40;99.90
20233;DHT22;37438;55.674;13.074;2023-09-12T18:01:33;22.50;99.90
20233;DHT22;37438;55.674;13.074;2023-09-12T18:04:39;22.40;99.90
20233;DHT22;37438;55.674;13.074;2023-09-12T18:07:43;22.40;99.90
20233;DHT22;37438;55.674;13.074;2023-09-12T18:10:48;22.50;99.90
20233;DHT22;37438;55.674;13.074;2023-09-12T18:13:53;22.40;99.90
20233;DHT22;37438;55.674;13.074;2023-09-12T18:16:57;22.40;99.90
20233;DHT22;37438;55.674;13.074;2023-09-12T18:20:02;22.40;99.90
20233;DHT22;37438;55.674;13.074;2023-09-12T18:23:07;22.40;99.90
20233;DHT22;37438;55.674;13.074;2023-09-12T18:26:13;22.40;99.90
20233;DHT22;37438;55.674;13.074;2023-09-12T18:29:17;22.20;99.90
20233;DHT22;37438;55.674;13.074;2023-09-12T18:32:22;22.20;99.90
20233;DHT22;37438;55.674;13.074;2023-09-12T18:35:27;22.30;99.90
20233;DHT22;37438;55.674;13.074;2023-09-12T18:38:31;22.30;99.90
20233;DHT22;37438;55.674;13.074;2023-09-12T18:41:36;22.20;99.90
20233;DHT22;37438;55.674;13.074;2023-09-12T18:44:40;22.20;99.90
20233;DHT22;37438;55.674;13.074;2023-09-12T18:47:45;22.00;99.90
20233;DHT22;37438;55.674;13.074;2023-09-12T18:50:49;22.10;99.90
20233;DHT22;37438;55.674;13.074;2023-09-12T18:53:54;22.00;99.90
20233;DHT22;37438;55.674;13.074;2023-09-12T18:56:59;22.00;99.90
20233;DHT22;37438;55.674;13.074;2023-09-12T19:00:12;22.00;99.90
20233;DHT22;37438;55.674;13.074;2023-09-12T19:03:20;22.00;99.90
20233;DHT22;37438;55.674;13.074;2023-09-12T19:06:25;22.00;99.90
20233;DHT22;37438;55.674;13.074;2023-09-12T19:09:29;21.90;99.90
20233;DHT22;37438;55.674;13.074;2023-09-12T19:12:34;21.90;99.90
20233;DHT22;37438;55.674;13.074;2023-09-12T19:15:39;21.90;99.90
20233;DHT22;37438;55.674;13.074;2023-09-12T19:18:43;21.90;99.90
20233;DHT22;37438;55.674;13.074;2023-09-12T19:21:50;21.90;99.90
20233;DHT22;37438;55.674;13.074;2023-09-12T19:24:55;21.90;99.90
20233;DHT22;37438;55.674;13.074;2023-09-12T19:28:00;21.90;99.90
20233;DHT22;37438;55.674;13.074;2023-09-12T19:31:11;21.80;99.90
20233;DHT22;37438;55.674;13.074;2023-09-12T19:34:17;21.80;99.90
20233;DHT22;37438;55.674;13.074;2023-09-12T19:37:21;21.60;99.90